臺北飛航情報區 - 掃描席(區管/近場)

METAR RCTP 141500Z 07014KT 9999 FEW020 19/15 Q1021 NOSIG RMK A3015(K)=

站台狀態:Online
最後更新:2019-12-14 23:00:01